Time;durP1;ratioP1;P1;durP2;ratioP2;P2;SDS_P1;SDS_P2;PMS_P1;PMS_P2;Temp;Humidity;BMP_temperature;BMP_pressure;BME280_temperature;BME280_humidity;BME280_pressure;Samples;Min_cycle;Max_cycle;Signal;HPM_P1;HPM_P2
2021/11/02 00:01:41;;;;;;;2.97;2.30;;;9.00;99.90;;;;;;5028525;28;20202;-54
2021/11/02 00:04:07;;;;;;;2.67;2.10;;;8.90;99.90;;;;;;5031541;28;20550;-54
2021/11/02 00:06:36;;;;;;;3.00;2.50;;;9.00;99.90;;;;;;5030226;28;20403;-54
2021/11/02 00:09:05;;;;;;;3.00;2.70;;;9.00;99.90;;;;;;5021904;28;20492;-54
2021/11/02 00:11:32;;;;;;;2.33;1.95;;;8.90;99.90;;;;;;5032360;28;20174;-54
2021/11/02 00:14:01;;;;;;;2.20;1.98;;;9.10;99.90;;;;;;5030520;28;20210;-54
2021/11/02 00:16:27;;;;;;;2.83;2.22;;;9.20;99.90;;;;;;5027277;28;20226;-54
2021/11/02 00:19:01;;;;;;;3.23;2.30;;;9.20;99.90;;;;;;5031128;28;20715;-54
2021/11/02 00:21:33;;;;;;;2.50;2.25;;;9.30;99.90;;;;;;5025097;28;20981;-54
2021/11/02 00:24:15;;;;;;;6.82;2.55;;;9.20;99.90;;;;;;5030284;28;20285;-54
2021/11/02 00:26:41;;;;;;;3.70;2.47;;;9.20;99.90;;;;;;5031196;28;20550;-54
2021/11/02 00:29:07;;;;;;;2.60;2.40;;;9.20;99.90;;;;;;5030320;28;20554;-54
2021/11/02 00:31:33;;;;;;;2.80;2.58;;;9.40;99.90;;;;;;5025728;28;20178;-54
2021/11/02 00:33:59;;;;;;;3.10;2.03;;;9.50;99.90;;;;;;5031109;28;20209;-54
2021/11/02 00:36:25;;;;;;;2.40;2.20;;;9.60;99.90;;;;;;5031626;28;20269;-54
2021/11/02 00:38:50;;;;;;;2.50;2.30;;;9.50;99.90;;;;;;5027797;28;20443;-54
2021/11/02 00:41:16;;;;;;;2.40;2.20;;;9.30;99.90;;;;;;5030306;28;20454;-54
2021/11/02 00:43:44;;;;;;;2.27;1.97;;;9.60;99.90;;;;;;5031010;28;20201;-54
2021/11/02 00:46:10;;;;;;;3.50;2.78;;;9.50;99.90;;;;;;5028403;28;20182;-55
2021/11/02 00:48:35;;;;;;;3.10;2.60;;;9.60;99.90;;;;;;5030692;28;20183;-54
2021/11/02 00:51:02;;;;;;;3.13;2.23;;;9.80;99.90;;;;;;5030686;28;20326;-54
2021/11/02 00:53:28;;;;;;;4.30;2.45;;;9.80;99.90;;;;;;5020314;28;20951;-56
2021/11/02 00:55:54;;;;;;;3.10;1.90;;;9.10;99.90;;;;;;5030479;28;20199;-54
2021/11/02 00:58:21;;;;;;;7.82;1.80;;;9.30;99.90;;;;;;5029287;28;20671;-54
2021/11/02 01:00:47;;;;;;;3.85;1.75;;;9.80;99.90;;;;;;5026064;28;20210;-54
2021/11/02 01:03:13;;;;;;;1.77;1.40;;;9.90;99.90;;;;;;5030753;28;20261;-54
2021/11/02 01:05:39;;;;;;;2.23;1.90;;;9.90;99.90;;;;;;5030297;28;20662;-54
2021/11/02 01:08:05;;;;;;;2.05;1.60;;;9.90;99.90;;;;;;5026788;28;20241;-54
2021/11/02 01:10:31;;;;;;;2.42;1.80;;;10.10;99.90;;;;;;5030910;28;20589;-54
2021/11/02 01:12:57;;;;;;;2.90;1.50;;;10.10;99.90;;;;;;5030311;28;20647;-55
2021/11/02 01:15:28;;;;;;;2.30;1.50;;;10.20;99.90;;;;;;5028422;28;20183;-54
2021/11/02 01:17:57;;;;;;;1.85;1.45;;;10.10;99.90;;;;;;5029444;28;20213;-54
2021/11/02 01:20:24;;;;;;;1.70;1.38;;;10.40;99.90;;;;;;5024811;28;20218;-54
2021/11/02 01:22:50;;;;;;;2.95;1.60;;;10.30;99.90;;;;;;5028550;28;20189;-54
2021/11/02 01:25:16;;;;;;;1.10;1.00;;;10.50;99.90;;;;;;5029186;28;20273;-54
2021/11/02 01:27:42;;;;;;;1.80;1.20;;;10.50;99.90;;;;;;5036553;28;20278;-55
2021/11/02 01:30:10;;;;;;;2.58;1.45;;;10.50;99.90;;;;;;5025785;28;20556;-54
2021/11/02 01:32:36;;;;;;;2.90;1.67;;;10.40;99.90;;;;;;5027477;28;20178;-54
2021/11/02 01:35:02;;;;;;;2.22;1.60;;;10.50;99.90;;;;;;5029795;28;20201;-54
2021/11/02 01:37:31;;;;;;;3.92;1.80;;;10.60;99.90;;;;;;5029403;28;20182;-54
2021/11/02 01:39:57;;;;;;;1.50;1.40;;;10.70;99.90;;;;;;5027156;28;20209;-54
2021/11/02 01:42:25;;;;;;;4.32;1.90;;;10.50;99.90;;;;;;5029598;28;20277;-54
2021/11/02 01:44:53;;;;;;;1.95;1.85;;;10.50;99.90;;;;;;5027559;28;20204;-54
2021/11/02 01:47:20;;;;;;;3.70;2.00;;;10.50;99.90;;;;;;5021960;28;20182;-54
2021/11/02 01:49:45;;;;;;;2.22;1.50;;;10.20;99.90;;;;;;5031744;28;20206;-54
2021/11/02 01:52:11;;;;;;;2.60;1.90;;;10.40;99.90;;;;;;5029382;28;20218;-54
2021/11/02 01:54:37;;;;;;;4.50;2.17;;;10.50;99.90;;;;;;5019458;28;20898;-54
2021/11/02 01:57:04;;;;;;;1.92;1.70;;;10.50;99.90;;;;;;5029327;28;20190;-54
2021/11/02 01:59:31;;;;;;;2.55;1.60;;;10.50;99.90;;;;;;5028449;28;21028;-53
2021/11/02 02:02:01;;;;;;;2.65;1.52;;;10.50;99.90;;;;;;5029674;28;20229;-54
2021/11/02 02:05:07;;;;;;;1.95;1.35;;;10.40;99.90;;;;;;5029823;28;20183;-54
2021/11/02 02:07:56;;;;;;;1.60;1.35;;;10.30;99.90;;;;;;5025449;28;20186;-54
2021/11/02 02:10:40;;;;;;;2.55;1.60;;;10.30;99.90;;;;;;5016339;28;20706;-54
2021/11/02 02:13:29;;;;;;;6.18;1.80;;;10.50;99.90;;;;;;5032678;28;20186;-55
2021/11/02 02:16:16;;;;;;;2.13;1.70;;;10.60;99.90;;;;;;5024698;28;20213;-54
2021/11/02 02:18:45;;;;;;;2.22;1.40;;;10.10;99.90;;;;;;5025892;28;20205;-54
2021/11/02 02:21:30;;;;;;;1.88;1.40;;;10.40;99.90;;;;;;5025551;28;20218;-54
2021/11/02 02:24:23;;;;;;;1.85;1.33;;;10.50;99.90;;;;;;5021256;28;20766;-54
2021/11/02 02:27:00;;;;;;;2.08;1.52;;;10.40;99.90;;;;;;5031013;28;20205;-54
2021/11/02 02:29:29;;;;;;;1.30;1.20;;;10.50;99.90;;;;;;5025212;28;20209;-54
2021/11/02 02:31:56;;;;;;;1.90;1.42;;;10.20;99.90;;;;;;5021855;28;20187;-54
2021/11/02 02:34:24;;;;;;;3.33;1.35;;;10.40;99.90;;;;;;5026995;28;20213;-54
2021/11/02 02:36:51;;;;;;;1.58;1.48;;;10.50;99.90;;;;;;5034238;28;20240;-54
2021/11/02 02:39:18;;;;;;;1.17;1.08;;;10.40;99.90;;;;;;5031102;28;20210;-54
2021/11/02 02:41:45;;;;;;;2.45;1.27;;;10.40;99.90;;;;;;5028397;28;20214;-54
2021/11/02 02:44:12;;;;;;;1.90;1.00;;;10.40;99.90;;;;;;5033354;28;20582;-54
2021/11/02 02:46:39;;;;;;;1.20;1.10;;;10.40;99.90;;;;;;5024030;28;20192;-54
2021/11/02 02:49:06;;;;;;;1.85;1.50;;;10.30;99.90;;;;;;5029276;28;20179;-54
2021/11/02 02:51:34;;;;;;;5.93;1.00;;;10.30;99.90;;;;;;5020506;28;20683;-54
2021/11/02 02:54:01;;;;;;;2.78;1.35;;;10.40;99.90;;;;;;5030196;28;20198;-54
2021/11/02 02:56:29;;;;;;;3.30;1.60;;;10.20;99.90;;;;;;5025798;28;20178;-54
2021/11/02 02:59:00;;;;;;;1.70;1.20;;;10.50;99.90;;;;;;5024599;28;20187;-54
2021/11/02 03:01:27;;;;;;;2.17;1.30;;;10.30;99.90;;;;;;5029331;28;20706;-55
2021/11/02 03:04:15;;;;;;;3.03;1.50;;;9.80;99.90;;;;;;5021076;28;20198;-54
2021/11/02 03:06:43;;;;;;;4.82;1.45;;;10.40;99.90;;;;;;5028516;28;21780;-54
2021/11/02 03:09:09;;;;;;;1.55;1.42;;;10.40;99.90;;;;;;5009457;28;20280;-54
2021/11/02 03:11:36;;;;;;;1.60;1.27;;;10.50;99.90;;;;;;5025354;28;20218;-54
2021/11/02 03:14:07;;;;;;;3.15;1.70;;;10.30;99.90;;;;;;5028796;28;20444;-54
2021/11/02 04:23:11;;;;;;;4.00;1.80;;;8.90;99.90;;;;;;5027503;28;20221;-54
2021/11/02 04:27:54;;;;;;;3.90;1.90;;;8.80;99.90;;;;;;5023891;28;20201;-54
2021/11/02 05:08:56;;;;;;;3.90;2.55;;;8.20;99.90;;;;;;5028515;28;20220;-54
2021/11/02 05:14:09;;;;;;;2.42;2.00;;;8.30;99.90;;;;;;5024033;28;20228;-53
2021/11/02 05:52:14;;;;;;;2.60;2.40;;;7.40;99.90;;;;;;5030404;28;20201;-54
2021/11/02 05:59:34;;;;;;;3.60;2.10;;;7.60;99.90;;;;;;5032882;28;20762;-54
2021/11/02 06:05:03;;;;;;;3.70;2.45;;;7.40;99.90;;;;;;5021424;28;20189;-54
2021/11/02 06:10:21;;;;;;;3.05;2.30;;;7.60;99.90;;;;;;5027925;28;20614;-54
2021/11/02 06:30:01;;;;;;;4.15;2.50;;;7.40;99.90;;;;;;5024058;28;20709;-53
2021/11/02 06:32:31;;;;;;;2.80;1.85;;;7.40;99.90;;;;;;5032154;28;20613;-54
2021/11/02 06:41:59;;;;;;;2.30;2.10;;;7.40;99.90;;;;;;5023753;28;20214;-54
2021/11/02 06:46:00;;;;;;;3.58;2.45;;;7.10;99.90;;;;;;5028239;28;20185;-54
2021/11/02 06:59:37;;;;;;;2.95;2.65;;;6.80;99.90;;;;;;5030290;28;20217;-54
2021/11/02 07:19:36;;;;;;;2.75;2.35;;;7.40;99.90;;;;;;5025592;28;20263;-55
2021/11/02 08:45:37;;;;;;;2.08;1.23;;;12.10;99.90;;;;;;5018615;28;20651;-52
2021/11/02 08:48:04;;;;;;;1.80;1.30;;;12.20;99.90;;;;;;5028547;28;20187;-53
2021/11/02 08:50:37;;;;;;;2.20;1.50;;;12.30;99.90;;;;;;5023967;28;20208;-53
2021/11/02 08:53:06;;;;;;;4.38;1.40;;;12.40;99.90;;;;;;5029957;28;20214;-55
2021/11/02 08:55:33;;;;;;;2.42;1.35;;;12.40;99.90;;;;;;5024807;28;20206;-53
2021/11/02 08:57:59;;;;;;;2.08;1.45;;;12.70;99.90;;;;;;5024776;28;20185;-53
2021/11/02 09:00:25;;;;;;;1.63;1.53;;;12.60;99.90;;;;;;5024409;28;20217;-53
2021/11/02 09:02:54;;;;;;;2.00;1.40;;;12.60;99.90;;;;;;5025620;28;20837;-53
2021/11/02 09:05:24;;;;;;;4.38;1.85;;;12.60;99.90;;;;;;5024301;28;20212;-54
2021/11/02 09:07:57;;;;;;;2.80;1.65;;;12.50;99.90;;;;;;5028221;28;20181;-55
2021/11/02 09:10:23;;;;;;;2.20;1.30;;;12.20;99.90;;;;;;5027980;28;20197;-55
2021/11/02 09:12:52;;;;;;;2.92;1.20;;;12.30;99.90;;;;;;5031469;28;20185;-56
2021/11/02 09:15:24;;;;;;;1.85;1.58;;;12.40;99.90;;;;;;5029488;28;20646;-56
2021/11/02 09:17:52;;;;;;;2.15;1.30;;;12.20;99.90;;;;;;5024399;28;20554;-53
2021/11/02 09:20:20;;;;;;;1.40;1.30;;;12.00;99.90;;;;;;5030330;28;20284;-54
2021/11/02 09:22:48;;;;;;;1.63;1.23;;;12.40;99.90;;;;;;5022804;28;20207;-54
2021/11/02 09:25:15;;;;;;;1.85;1.27;;;12.10;99.90;;;;;;5024293;28;20186;-54
2021/11/02 09:27:46;;;;;;;1.80;1.05;;;11.90;99.90;;;;;;5027261;28;20216;-56
2021/11/02 09:30:13;;;;;;;3.05;1.25;;;11.80;99.90;;;;;;5012587;28;20236;-56
2021/11/02 09:32:42;;;;;;;1.98;1.08;;;11.80;99.90;;;;;;5030106;28;20263;-56
2021/11/02 09:35:09;;;;;;;2.83;2.45;;;11.50;99.90;;;;;;5029592;28;20313;-57
2021/11/02 09:37:37;;;;;;;2.60;1.30;;;11.40;99.90;;;;;;5026284;28;20653;-53
2021/11/02 09:40:27;;;;;;;4.93;1.55;;;11.20;99.90;;;;;;5026399;28;20581;-54
2021/11/02 09:43:22;;;;;;;2.33;1.30;;;11.30;99.90;;;;;;5024515;28;20198;-52
2021/11/02 09:45:48;;;;;;;3.17;1.40;;;11.50;99.90;;;;;;5023588;28;20182;-55
2021/11/02 09:48:20;;;;;;;2.60;1.00;;;11.50;99.90;;;;;;5027935;28;21111;-56
2021/11/02 09:51:17;;;;;;;2.30;1.38;;;11.20;99.90;;;;;;5024525;28;20207;-56
2021/11/02 09:54:19;;;;;;;2.88;1.25;;;11.20;99.90;;;;;;5023933;28;20184;-55
2021/11/02 09:57:21;;;;;;;4.95;1.50;;;11.30;99.90;;;;;;5022255;28;20325;-56
2021/11/02 10:00:16;;;;;;;1.70;1.30;;;11.20;99.90;;;;;;5022926;28;20210;-55
2021/11/02 10:03:02;;;;;;;1.48;1.20;;;11.30;99.90;;;;;;5024047;28;20208;-55
2021/11/02 10:05:44;;;;;;;1.30;1.10;;;11.60;99.90;;;;;;5030203;28;20459;-56
2021/11/02 10:08:42;;;;;;;1.45;1.35;;;11.50;99.90;;;;;;5028123;28;20249;-54
2021/11/02 10:11:23;;;;;;;2.40;1.15;;;11.50;99.90;;;;;;4987556;28;20218;-56
2021/11/02 10:13:52;;;;;;;4.15;1.77;;;11.60;99.90;;;;;;5028555;28;20187;-55
2021/11/02 10:16:42;;;;;;;1.55;1.40;;;11.20;99.90;;;;;;5012543;28;20217;-55
2021/11/02 10:19:52;;;;;;;3.05;1.63;;;11.30;99.90;;;;;;5025368;28;20534;-53
2021/11/02 10:22:51;;;;;;;3.13;2.30;;;11.30;99.90;;;;;;5001266;28;20671;-56
2021/11/02 10:25:22;;;;;;;1.80;1.65;;;11.30;99.90;;;;;;5023470;28;20190;-53
2021/11/02 10:28:00;;;;;;;2.10;1.30;;;11.50;99.90;;;;;;5027883;28;20189;-54
2021/11/02 10:30:47;;;;;;;4.95;3.20;;;11.50;99.90;;;;;;5025608;28;20209;-54
2021/11/02 10:33:29;;;;;;;1.30;1.20;;;11.50;99.90;;;;;;5026752;28;20273;-54
2021/11/02 10:36:17;;;;;;;5.20;1.75;;;11.50;99.90;;;;;;5028695;28;20186;-51
2021/11/02 10:38:51;;;;;;;1.85;1.63;;;11.20;99.90;;;;;;5018687;28;20194;-55
2021/11/02 10:41:19;;;;;;;2.70;1.83;;;11.40;99.90;;;;;;5023128;28;20258;-52
2021/11/02 10:44:06;;;;;;;1.92;1.30;;;11.20;99.90;;;;;;5012195;28;20561;-54
2021/11/02 10:46:40;;;;;;;1.30;1.20;;;11.10;99.90;;;;;;5014383;28;20269;-53
2021/11/02 10:49:24;;;;;;;2.50;2.00;;;11.40;99.90;;;;;;5008163;28;20318;-53
2021/11/02 10:52:11;;;;;;;3.83;1.75;;;11.30;99.90;;;;;;5015666;28;20174;-53
2021/11/02 10:55:04;;;;;;;3.05;1.70;;;11.20;99.90;;;;;;5023783;28;20175;-53
2021/11/02 10:57:50;;;;;;;3.17;2.10;;;11.20;99.90;;;;;;5029695;28;20186;-53
2021/11/02 11:00:19;;;;;;;3.08;1.90;;;11.20;99.90;;;;;;5026448;28;20245;-53
2021/11/02 11:02:47;;;;;;;2.30;1.40;;;11.20;99.90;;;;;;5029590;28;20614;-53
2021/11/02 11:05:13;;;;;;;4.70;1.80;;;11.40;99.90;;;;;;5037974;28;20239;-53
2021/11/02 11:07:41;;;;;;;2.40;2.20;;;11.40;99.90;;;;;;5034876;28;20192;-53
2021/11/02 11:10:14;;;;;;;1.90;1.60;;;11.40;99.90;;;;;;5025641;28;20203;-53
2021/11/02 11:12:54;;;;;;;2.38;1.60;;;11.50;99.90;;;;;;5032547;28;20597;-53
2021/11/02 11:15:20;;;;;;;2.85;1.63;;;11.60;99.90;;;;;;5026366;28;20314;-52
2021/11/02 11:18:01;;;;;;;3.97;1.65;;;11.60;99.90;;;;;;5032978;28;20202;-53
2021/11/02 11:20:27;;;;;;;1.90;1.58;;;11.60;99.90;;;;;;5032294;28;20242;-53
2021/11/02 11:22:54;;;;;;;1.90;1.40;;;11.50;99.90;;;;;;5031643;28;20218;-53
2021/11/02 11:25:37;;;;;;;4.00;2.80;;;11.50;99.90;;;;;;5028924;28;20182;-53
2021/11/02 11:28:03;;;;;;;2.05;1.30;;;11.70;99.90;;;;;;5014451;28;20184;-53
2021/11/02 11:30:30;;;;;;;2.72;1.30;;;11.80;99.90;;;;;;5018446;28;20210;-53
2021/11/02 11:32:57;;;;;;;1.80;1.70;;;12.20;99.90;;;;;;5028058;28;20189;-53
2021/11/02 11:35:23;;;;;;;2.95;1.40;;;12.00;99.90;;;;;;5032425;28;20277;-53
2021/11/02 11:37:51;;;;;;;1.60;1.50;;;12.00;99.90;;;;;;5027402;28;20280;-53
2021/11/02 11:40:23;;;;;;;1.98;1.63;;;12.20;99.90;;;;;;5027713;28;20504;-53
2021/11/02 11:42:52;;;;;;;1.80;1.60;;;12.20;99.90;;;;;;5032007;28;20196;-53
2021/11/02 11:45:28;;;;;;;2.95;1.75;;;12.20;99.90;;;;;;5020377;28;20246;-53
2021/11/02 11:48:21;;;;;;;2.08;1.50;;;12.30;99.90;;;;;;5032104;28;20198;-53
2021/11/02 11:50:48;;;;;;;1.55;1.27;;;12.60;99.90;;;;;;5019453;28;20204;-54
2021/11/02 11:53:19;;;;;;;1.10;1.00;;;13.00;99.90;;;;;;5031889;28;20285;-54
2021/11/02 11:56:04;;;;;;;1.63;1.20;;;13.00;99.90;;;;;;5024992;28;20223;-54
2021/11/02 11:58:30;;;;;;;1.20;1.10;;;13.00;99.90;;;;;;5031719;28;20220;-52
2021/11/02 12:01:14;;;;;;;1.45;1.20;;;13.30;99.90;;;;;;5020538;28;20214;-53
2021/11/02 12:03:57;;;;;;;2.67;1.20;;;13.30;99.90;;;;;;5031774;28;20209;-53
2021/11/02 12:06:28;;;;;;;2.65;1.65;;;13.60;99.90;;;;;;5031445;28;20285;-53
2021/11/02 12:09:03;;;;;;;1.40;1.30;;;13.70;99.90;;;;;;5028206;28;20174;-53
2021/11/02 12:11:32;;;;;;;2.22;1.13;;;13.50;99.90;;;;;;5019779;28;20200;-52
2021/11/02 12:14:11;;;;;;;1.48;1.35;;;13.40;99.90;;;;;;5028588;28;20193;-54
2021/11/02 12:16:39;;;;;;;1.00;0.90;;;13.60;99.90;;;;;;5028706;28;20269;-54
2021/11/02 12:19:10;;;;;;;1.05;0.95;;;13.60;99.90;;;;;;5029076;28;20183;-54
2021/11/02 12:21:37;;;;;;;0.90;0.80;;;13.00;99.90;;;;;;5028852;28;20304;-55
2021/11/02 12:24:15;;;;;;;1.00;0.90;;;12.90;99.90;;;;;;5023883;28;20234;-54
2021/11/02 12:26:50;;;;;;;1.10;1.00;;;13.10;99.90;;;;;;5031256;28;20203;-54
2021/11/02 12:29:26;;;;;;;0.80;0.77;;;12.70;99.90;;;;;;5030493;28;20194;-54
2021/11/02 12:32:04;;;;;;;1.60;0.70;;;12.80;99.90;;;;;;5027154;28;20720;-55
2021/11/02 12:34:50;;;;;;;1.10;1.00;;;12.80;99.90;;;;;;5031160;28;20182;-54
2021/11/02 12:37:18;;;;;;;1.00;0.90;;;12.60;99.90;;;;;;5028653;28;20182;-54
2021/11/02 12:39:45;;;;;;;1.00;0.85;;;12.60;99.90;;;;;;5026094;28;20209;-53
2021/11/02 12:42:12;;;;;;;3.13;0.93;;;12.50;99.90;;;;;;5030746;28;20669;-54
2021/11/02 12:44:40;;;;;;;1.50;1.40;;;12.60;99.90;;;;;;5023925;28;20263;-53
2021/11/02 12:47:11;;;;;;;0.70;0.60;;;12.70;99.90;;;;;;5030538;28;20213;-57
2021/11/02 12:49:44;;;;;;;0.80;0.60;;;12.90;99.90;;;;;;5029667;28;20669;-53
2021/11/02 12:52:11;;;;;;;1.88;0.60;;;12.70;99.90;;;;;;5030829;28;20225;-54
2021/11/02 12:54:38;;;;;;;0.80;0.65;;;12.90;99.90;;;;;;5025598;28;20188;-53
2021/11/02 12:57:12;;;;;;;1.90;0.70;;;12.70;99.90;;;;;;5024353;28;20200;-54
2021/11/02 12:59:46;;;;;;;1.55;0.70;;;12.60;99.90;;;;;;5028171;28;20208;-55
2021/11/02 13:02:19;;;;;;;1.42;1.33;;;13.00;99.90;;;;;;5024904;28;20375;-56
2021/11/02 13:05:13;;;;;;;0.90;0.90;;;12.70;99.90;;;;;;5020805;28;20195;-56
2021/11/02 13:07:42;;;;;;;1.15;0.82;;;13.10;99.90;;;;;;5029823;28;20184;-56
2021/11/02 13:10:17;;;;;;;0.98;0.55;;;12.90;99.90;;;;;;5015225;28;20257;-54
2021/11/02 13:12:50;;;;;;;2.88;0.95;;;13.10;99.90;;;;;;5030363;28;20197;-54
2021/11/02 13:15:16;;;;;;;0.80;0.65;;;12.80;99.90;;;;;;5024932;28;20275;-54
2021/11/02 13:17:48;;;;;;;1.20;1.00;;;13.20;99.90;;;;;;5029885;28;20185;-54
2021/11/02 13:20:28;;;;;;;0.80;0.70;;;13.30;99.90;;;;;;5028998;28;20572;-55
2021/11/02 13:22:54;;;;;;;0.80;0.70;;;12.90;99.90;;;;;;5029878;28;20208;-54
2021/11/02 13:25:24;;;;;;;1.70;1.38;;;12.90;99.90;;;;;;5028831;28;20642;-54
2021/11/02 13:27:55;;;;;;;1.27;0.90;;;12.90;99.90;;;;;;5029820;28;20670;-54
2021/11/02 13:30:37;;;;;;;0.73;0.73;;;12.80;99.90;;;;;;5022822;28;20205;-54
2021/11/02 13:33:07;;;;;;;1.10;0.95;;;12.70;99.90;;;;;;5028568;28;20563;-55
2021/11/02 13:35:52;;;;;;;0.80;0.60;;;12.80;99.90;;;;;;5027268;28;20193;-53
2021/11/02 13:38:37;;;;;;;0.60;0.50;;;12.40;99.90;;;;;;5029753;28;20272;-53
2021/11/02 13:41:03;;;;;;;1.55;0.70;;;12.60;99.90;;;;;;5019471;28;20323;-53
2021/11/02 13:43:40;;;;;;;0.73;0.60;;;12.40;99.90;;;;;;5029462;28;20182;-53
2021/11/02 13:46:08;;;;;;;1.35;0.88;;;12.60;99.90;;;;;;5024017;28;20676;-55
2021/11/02 13:48:34;;;;;;;0.70;0.60;;;12.20;99.90;;;;;;5024811;28;20265;-53
2021/11/02 13:51:03;;;;;;;0.63;0.50;;;12.40;99.90;;;;;;5019245;28;20280;-53
2021/11/02 13:53:33;;;;;;;0.75;0.60;;;12.30;99.90;;;;;;5016671;28;20212;-52
2021/11/02 13:56:18;;;;;;;0.60;0.50;;;12.20;99.90;;;;;;5029370;28;20192;-55
2021/11/02 13:58:45;;;;;;;1.33;0.70;;;12.20;99.90;;;;;;5018067;28;20600;-54
2021/11/02 14:01:49;;;;;;;1.02;0.73;;;12.40;99.90;;;;;;5025771;28;20227;-54
2021/11/02 14:04:27;;;;;;;3.05;2.60;;;12.10;99.90;;;;;;5028911;28;20648;-54
2021/11/02 14:07:08;;;;;;;0.90;0.70;;;11.90;99.90;;;;;;5029335;28;20546;-54
2021/11/02 14:09:59;;;;;;;0.80;0.80;;;12.00;99.90;;;;;;5024481;28;20262;-53
2021/11/02 14:12:39;;;;;;;0.80;0.65;;;12.20;99.90;;;;;;5024941;28;20216;-53
2021/11/02 14:15:11;;;;;;;0.70;0.50;;;12.20;99.90;;;;;;5015264;28;20185;-52
2021/11/02 14:18:09;;;;;;;0.80;0.70;;;12.60;99.90;;;;;;5025975;28;20185;-52
2021/11/02 14:20:39;;;;;;;0.60;0.50;;;12.40;99.60;;;;;;5007901;28;20680;-52
2021/11/02 14:23:16;;;;;;;0.80;0.60;;;12.40;99.30;;;;;;5019522;28;20199;-53
2021/11/02 14:25:42;;;;;;;0.80;0.60;;;12.40;99.20;;;;;;5024351;28;20184;-52
2021/11/02 14:28:09;;;;;;;0.60;0.50;;;12.40;98.90;;;;;;5027914;28;20190;-51
2021/11/02 14:30:35;;;;;;;3.40;0.50;;;12.50;98.60;;;;;;5029473;28;20198;-51
2021/11/02 14:33:11;;;;;;;1.23;0.63;;;12.50;99.20;;;;;;5029330;28;20596;-53
2021/11/02 14:35:44;;;;;;;1.45;0.70;;;12.40;99.20;;;;;;5033018;28;20184;-53
2021/11/02 14:38:12;;;;;;;0.70;0.50;;;12.60;99.30;;;;;;5029370;28;20219;-53
2021/11/02 14:40:40;;;;;;;1.05;0.60;;;12.30;99.50;;;;;;5031730;28;20632;-53
2021/11/02 14:43:15;;;;;;;0.60;0.40;;;12.40;99.70;;;;;;5032432;28;20195;-52
2021/11/02 14:45:51;;;;;;;0.80;0.77;;;12.20;99.40;;;;;;5031701;28;20636;-53
2021/11/02 14:48:22;;;;;;;1.58;0.70;;;12.30;99.10;;;;;;5017746;28;20281;-53
2021/11/02 14:50:55;;;;;;;0.60;0.40;;;12.30;99.20;;;;;;5030462;28;20212;-53
2021/11/02 14:53:30;;;;;;;0.75;0.50;;;12.50;99.20;;;;;;5032983;28;20189;-52
2021/11/02 14:56:00;;;;;;;0.60;0.50;;;12.50;99.20;;;;;;5031619;28;20665;-52
2021/11/02 14:58:41;;;;;;;1.02;0.70;;;12.20;99.20;;;;;;5031844;28;20286;-52
2021/11/02 15:01:07;;;;;;;0.73;0.68;;;12.10;99.60;;;;;;5030155;28;20219;-52
2021/11/02 15:03:33;;;;;;;0.68;0.60;;;12.30;99.90;;;;;;5033095;28;20188;-52
2021/11/02 15:06:08;;;;;;;0.70;0.50;;;12.10;99.90;;;;;;5031631;28;20187;-52
2021/11/02 15:08:36;;;;;;;0.70;0.55;;;12.40;99.90;;;;;;5031764;28;20194;-52
2021/11/02 15:11:10;;;;;;;0.90;0.70;;;12.20;99.90;;;;;;5025464;28;20273;-52
2021/11/02 15:13:38;;;;;;;1.38;0.60;;;12.00;99.90;;;;;;5023335;28;20178;-53
2021/11/02 15:16:05;;;;;;;1.25;0.65;;;12.00;99.90;;;;;;5027697;28;20188;-54
2021/11/02 15:18:51;;;;;;;1.48;0.70;;;12.10;99.90;;;;;;5016000;28;20548;-52
2021/11/02 15:21:26;;;;;;;1.00;0.80;;;12.20;99.90;;;;;;5027503;28;20222;-53
2021/11/02 15:23:52;;;;;;;1.20;0.90;;;11.60;99.80;;;;;;5021597;28;20204;-55
2021/11/02 15:26:18;;;;;;;0.70;0.60;;;11.60;99.90;;;;;;5035239;28;20186;-54
2021/11/02 15:28:50;;;;;;;0.73;0.73;;;11.80;99.90;;;;;;5022940;28;20189;-53
2021/11/02 15:31:20;;;;;;;1.73;0.73;;;11.20;99.90;;;;;;5023060;28;20680;-52
2021/11/02 15:33:45;;;;;;;0.75;0.70;;;11.70;99.90;;;;;;5030331;28;20196;-54
2021/11/02 15:36:20;;;;;;;1.57;0.60;;;11.50;99.90;;;;;;5030816;28;20214;-54
2021/11/02 15:39:07;;;;;;;1.25;0.85;;;11.60;99.90;;;;;;5027769;28;20292;-55
2021/11/02 15:41:33;;;;;;;1.50;0.80;;;11.50;99.90;;;;;;5030186;28;20241;-55
2021/11/02 15:44:04;;;;;;;0.80;0.65;;;11.10;99.90;;;;;;5023649;28;20270;-55
2021/11/02 15:46:39;;;;;;;0.80;0.68;;;10.90;99.90;;;;;;5026066;28;20210;-56
2021/11/02 15:49:10;;;;;;;0.60;0.55;;;11.10;99.90;;;;;;5025302;28;20206;-54
2021/11/02 15:51:53;;;;;;;0.80;0.60;;;11.10;99.90;;;;;;5026965;28;20178;-54
2021/11/02 15:54:20;;;;;;;0.95;0.85;;;10.90;99.90;;;;;;5024868;28;20546;-53
2021/11/02 15:56:45;;;;;;;6.85;5.15;;;10.90;99.90;;;;;;5027266;28;20190;-53
2021/11/02 15:59:12;;;;;;;0.80;0.70;;;10.70;99.90;;;;;;5028099;28;20206;-52
2021/11/02 16:01:40;;;;;;;0.70;0.60;;;10.40;99.90;;;;;;5022004;28;20210;-54
2021/11/02 16:04:14;;;;;;;1.20;1.00;;;10.40;99.90;;;;;;5026767;28;20193;-54
2021/11/02 16:07:00;;;;;;;0.90;0.90;;;10.60;99.90;;;;;;5021836;28;20183;-52
2021/11/02 16:09:42;;;;;;;2.33;1.00;;;10.50;99.90;;;;;;5009701;28;20218;-54
2021/11/02 16:12:15;;;;;;;2.38;1.50;;;10.20;99.90;;;;;;5026970;28;20195;-55
2021/11/02 16:14:52;;;;;;;1.63;1.40;;;10.70;99.90;;;;;;5027124;28;20191;-54
2021/11/02 16:17:19;;;;;;;1.40;1.20;;;10.10;99.90;;;;;;5030103;28;20190;-54
2021/11/02 16:19:46;;;;;;;1.42;1.30;;;10.40;99.90;;;;;;5034795;28;20671;-54
2021/11/02 16:22:12;;;;;;;1.65;1.08;;;10.10;99.90;;;;;;5030570;28;20199;-54
2021/11/02 16:24:39;;;;;;;1.23;1.13;;;10.40;99.90;;;;;;5027437;28;20241;-54
2021/11/02 16:27:21;;;;;;;2.50;1.30;;;10.50;99.90;;;;;;5031018;28;20643;-54
2021/11/02 16:29:49;;;;;;;0.80;0.70;;;10.50;99.90;;;;;;5030503;28;20199;-52
2021/11/02 16:32:27;;;;;;;1.25;1.10;;;10.40;99.90;;;;;;5030353;28;20190;-53
2021/11/02 16:34:54;;;;;;;1.17;0.90;;;10.50;99.90;;;;;;5028326;28;20519;-53
2021/11/02 16:37:39;;;;;;;1.10;1.00;;;10.60;99.90;;;;;;5029269;28;20240;-53
2021/11/02 16:40:27;;;;;;;1.50;1.00;;;10.70;99.90;;;;;;5028433;28;20273;-54
2021/11/02 16:43:04;;;;;;;1.67;1.50;;;10.40;99.90;;;;;;5026376;28;20279;-53
2021/11/02 16:45:35;;;;;;;1.52;1.00;;;10.30;99.90;;;;;;5024791;28;20539;-53
2021/11/02 16:48:08;;;;;;;3.28;1.25;;;10.50;99.90;;;;;;5029103;28;20210;-52
2021/11/02 16:50:37;;;;;;;1.70;1.58;;;10.40;99.90;;;;;;5030321;28;20206;-53
2021/11/02 16:53:12;;;;;;;1.45;1.00;;;10.10;99.90;;;;;;5026363;28;20178;-53
2021/11/02 16:55:41;;;;;;;2.75;1.13;;;10.20;99.90;;;;;;5024962;28;20181;-54
2021/11/02 16:58:19;;;;;;;3.60;2.15;;;10.20;99.90;;;;;;5029277;28;20197;-53
2021/11/02 17:00:46;;;;;;;1.48;1.00;;;10.40;99.90;;;;;;5024065;28;20308;-53
2021/11/02 17:03:19;;;;;;;2.08;1.88;;;10.20;99.90;;;;;;5032486;28;20311;-54
2021/11/02 17:05:47;;;;;;;2.45;1.77;;;10.20;99.90;;;;;;5028097;28;20622;-54
2021/11/02 17:08:14;;;;;;;2.95;1.60;;;10.10;99.90;;;;;;5024982;28;20553;-54
2021/11/02 17:10:55;;;;;;;2.53;1.90;;;10.10;99.90;;;;;;5029350;28;20190;-53
2021/11/02 17:13:26;;;;;;;1.40;1.30;;;9.90;99.90;;;;;;5024987;28;20655;-54
2021/11/02 17:15:59;;;;;;;5.55;3.80;;;10.10;99.90;;;;;;5024077;28;20193;-54
2021/11/02 17:18:28;;;;;;;1.95;1.85;;;9.90;99.90;;;;;;5022094;28;20185;-54
2021/11/02 17:21:07;;;;;;;2.63;2.40;;;10.00;99.90;;;;;;5030118;28;20206;-54
2021/11/02 17:23:34;;;;;;;3.35;2.67;;;10.20;99.90;;;;;;5027757;28;20182;-53
2021/11/02 17:26:00;;;;;;;3.38;2.35;;;10.00;99.90;;;;;;5022201;28;20190;-53
2021/11/02 17:28:26;;;;;;;2.53;1.92;;;10.00;99.90;;;;;;5028463;28;20351;-53
2021/11/02 17:30:52;;;;;;;2.45;2.05;;;9.80;99.90;;;;;;5026310;28;20590;-52
2021/11/02 17:33:19;;;;;;;3.60;2.67;;;9.70;99.90;;;;;;5013706;28;20182;-53
2021/11/02 17:35:46;;;;;;;2.47;2.28;;;9.70;99.90;;;;;;5027002;28;20412;-52
2021/11/02 17:38:13;;;;;;;2.03;1.77;;;9.70;99.90;;;;;;5026925;28;20845;-53
2021/11/02 17:40:40;;;;;;;2.75;2.55;;;9.60;99.90;;;;;;5022381;28;20202;-53
2021/11/02 17:43:07;;;;;;;3.60;3.30;;;9.60;99.90;;;;;;5028243;28;20193;-53
2021/11/02 17:45:33;;;;;;;3.25;2.95;;;9.70;99.90;;;;;;5022065;28;20329;-54
2021/11/02 17:47:59;;;;;;;3.33;3.03;;;9.60;99.90;;;;;;5028412;28;20269;-54
2021/11/02 17:50:28;;;;;;;6.47;4.85;;;9.70;99.90;;;;;;5025025;28;20202;-56
2021/11/02 17:52:58;;;;;;;4.50;3.00;;;9.60;99.90;;;;;;5026779;28;20759;-53
2021/11/02 17:55:24;;;;;;;3.45;3.15;;;9.50;99.90;;;;;;5023790;28;20293;-54
2021/11/02 17:57:52;;;;;;;4.50;2.85;;;9.40;99.90;;;;;;5028139;28;20183;-53
2021/11/02 18:00:20;;;;;;;2.75;2.50;;;9.20;99.90;;;;;;5022305;28;20665;-54
2021/11/02 18:02:49;;;;;;;3.13;2.92;;;9.20;99.90;;;;;;5022545;28;20297;-53
2021/11/02 18:05:16;;;;;;;4.90;3.75;;;8.50;99.90;;;;;;5027682;28;20217;-53
2021/11/02 18:07:41;;;;;;;7.20;5.47;;;9.00;99.90;;;;;;5028657;28;20240;-53
2021/11/02 18:10:09;;;;;;;6.13;5.57;;;9.10;99.90;;;;;;5028343;28;20694;-54